sensor_id;sensor_type;location;lat;lon;timestamp;P1;durP1;ratioP1;P2;durP2;ratioP2
17686;SDS011;8962;52.538;13.266;2024-03-06T00:01:03;43.38;;;24.02;;
17686;SDS011;8962;52.538;13.266;2024-03-06T00:03:32;42.25;;;22.55;;
17686;SDS011;8962;52.538;13.266;2024-03-06T00:05:59;40.63;;;23.52;;
17686;SDS011;8962;52.538;13.266;2024-03-06T00:08:26;42.65;;;23.90;;
17686;SDS011;8962;52.538;13.266;2024-03-06T00:10:55;47.03;;;24.55;;
17686;SDS011;8962;52.538;13.266;2024-03-06T00:13:22;43.15;;;23.70;;
17686;SDS011;8962;52.538;13.266;2024-03-06T00:15:49;46.75;;;24.08;;
17686;SDS011;8962;52.538;13.266;2024-03-06T00:18:18;44.38;;;25.15;;
17686;SDS011;8962;52.538;13.266;2024-03-06T00:20:45;46.65;;;25.35;;
17686;SDS011;8962;52.538;13.266;2024-03-06T00:23:12;45.53;;;25.10;;
17686;SDS011;8962;52.538;13.266;2024-03-06T00:25:39;47.53;;;25.02;;
17686;SDS011;8962;52.538;13.266;2024-03-06T00:28:08;49.17;;;26.27;;
17686;SDS011;8962;52.538;13.266;2024-03-06T00:30:35;47.90;;;26.38;;
17686;SDS011;8962;52.538;13.266;2024-03-06T00:33:02;41.83;;;23.88;;
17686;SDS011;8962;52.538;13.266;2024-03-06T00:35:29;48.03;;;24.85;;
17686;SDS011;8962;52.538;13.266;2024-03-06T00:37:56;44.28;;;24.73;;
17686;SDS011;8962;52.538;13.266;2024-03-06T00:40:27;44.40;;;24.10;;
17686;SDS011;8962;52.538;13.266;2024-03-06T00:42:56;43.03;;;24.23;;
17686;SDS011;8962;52.538;13.266;2024-03-06T00:45:24;44.20;;;25.23;;
17686;SDS011;8962;52.538;13.266;2024-03-06T00:47:51;47.85;;;24.52;;
17686;SDS011;8962;52.538;13.266;2024-03-06T00:50:18;48.45;;;24.05;;
17686;SDS011;8962;52.538;13.266;2024-03-06T00:52:47;46.72;;;25.08;;
17686;SDS011;8962;52.538;13.266;2024-03-06T00:55:14;44.78;;;24.73;;
17686;SDS011;8962;52.538;13.266;2024-03-06T00:57:42;45.15;;;24.98;;
17686;SDS011;8962;52.538;13.266;2024-03-06T01:00:09;42.70;;;24.23;;
17686;SDS011;8962;52.538;13.266;2024-03-06T01:02:39;39.42;;;23.35;;
17686;SDS011;8962;52.538;13.266;2024-03-06T01:05:06;41.67;;;23.30;;
17686;SDS011;8962;52.538;13.266;2024-03-06T01:07:34;44.88;;;24.17;;
17686;SDS011;8962;52.538;13.266;2024-03-06T01:10:05;43.85;;;23.48;;
17686;SDS011;8962;52.538;13.266;2024-03-06T01:12:33;41.85;;;24.17;;
17686;SDS011;8962;52.538;13.266;2024-03-06T01:15:00;48.17;;;22.40;;
17686;SDS011;8962;52.538;13.266;2024-03-06T01:17:28;42.40;;;24.88;;
17686;SDS011;8962;52.538;13.266;2024-03-06T01:19:56;43.25;;;23.50;;
17686;SDS011;8962;52.538;13.266;2024-03-06T01:22:24;42.83;;;24.90;;
17686;SDS011;8962;52.538;13.266;2024-03-06T01:24:51;52.85;;;25.55;;
17686;SDS011;8962;52.538;13.266;2024-03-06T01:27:18;48.35;;;25.38;;
17686;SDS011;8962;52.538;13.266;2024-03-06T01:29:46;42.28;;;24.05;;
17686;SDS011;8962;52.538;13.266;2024-03-06T01:32:13;46.80;;;25.05;;
17686;SDS011;8962;52.538;13.266;2024-03-06T01:34:40;47.20;;;24.58;;
17686;SDS011;8962;52.538;13.266;2024-03-06T01:37:08;41.70;;;23.77;;
17686;SDS011;8962;52.538;13.266;2024-03-06T01:39:36;45.58;;;24.30;;
17686;SDS011;8962;52.538;13.266;2024-03-06T01:42:03;41.30;;;23.67;;
17686;SDS011;8962;52.538;13.266;2024-03-06T01:44:30;41.95;;;23.73;;
17686;SDS011;8962;52.538;13.266;2024-03-06T01:46:57;40.53;;;22.88;;
17686;SDS011;8962;52.538;13.266;2024-03-06T01:49:24;43.60;;;23.60;;
17686;SDS011;8962;52.538;13.266;2024-03-06T01:51:54;41.15;;;23.23;;
17686;SDS011;8962;52.538;13.266;2024-03-06T01:54:24;41.33;;;23.85;;
17686;SDS011;8962;52.538;13.266;2024-03-06T01:56:52;44.47;;;23.85;;
17686;SDS011;8962;52.538;13.266;2024-03-06T01:59:21;39.38;;;22.95;;
17686;SDS011;8962;52.538;13.266;2024-03-06T02:01:51;43.95;;;24.33;;
17686;SDS011;8962;52.538;13.266;2024-03-06T02:04:19;42.70;;;24.45;;
17686;SDS011;8962;52.538;13.266;2024-03-06T02:06:46;42.92;;;22.90;;
17686;SDS011;8962;52.538;13.266;2024-03-06T02:09:14;43.45;;;24.00;;
17686;SDS011;8962;52.538;13.266;2024-03-06T02:11:43;42.28;;;23.30;;
17686;SDS011;8962;52.538;13.266;2024-03-06T02:14:12;44.55;;;24.75;;
17686;SDS011;8962;52.538;13.266;2024-03-06T02:16:39;39.38;;;22.88;;
17686;SDS011;8962;52.538;13.266;2024-03-06T02:19:07;42.20;;;22.98;;
17686;SDS011;8962;52.538;13.266;2024-03-06T02:21:36;42.50;;;23.65;;
17686;SDS011;8962;52.538;13.266;2024-03-06T02:24:03;42.80;;;23.85;;
17686;SDS011;8962;52.538;13.266;2024-03-06T02:26:30;42.33;;;22.50;;
17686;SDS011;8962;52.538;13.266;2024-03-06T02:28:57;42.22;;;24.02;;
17686;SDS011;8962;52.538;13.266;2024-03-06T02:31:24;43.65;;;24.38;;
17686;SDS011;8962;52.538;13.266;2024-03-06T02:33:51;44.10;;;24.42;;
17686;SDS011;8962;52.538;13.266;2024-03-06T02:36:19;46.20;;;24.13;;
17686;SDS011;8962;52.538;13.266;2024-03-06T02:38:48;43.60;;;25.05;;
17686;SDS011;8962;52.538;13.266;2024-03-06T02:41:16;47.58;;;24.77;;
17686;SDS011;8962;52.538;13.266;2024-03-06T02:43:43;44.65;;;23.48;;
17686;SDS011;8962;52.538;13.266;2024-03-06T02:46:10;42.92;;;23.98;;
17686;SDS011;8962;52.538;13.266;2024-03-06T02:48:37;44.15;;;24.48;;
17686;SDS011;8962;52.538;13.266;2024-03-06T02:51:04;42.72;;;23.95;;
17686;SDS011;8962;52.538;13.266;2024-03-06T02:53:31;43.83;;;24.45;;
17686;SDS011;8962;52.538;13.266;2024-03-06T02:56:00;43.17;;;24.25;;
17686;SDS011;8962;52.538;13.266;2024-03-06T02:58:27;42.65;;;23.52;;
17686;SDS011;8962;52.538;13.266;2024-03-06T03:00:56;44.63;;;24.77;;
17686;SDS011;8962;52.538;13.266;2024-03-06T03:03:23;42.20;;;22.98;;
17686;SDS011;8962;52.538;13.266;2024-03-06T03:05:51;39.63;;;23.23;;
17686;SDS011;8962;52.538;13.266;2024-03-06T03:08:18;43.97;;;23.90;;
17686;SDS011;8962;52.538;13.266;2024-03-06T03:10:47;44.17;;;23.85;;
17686;SDS011;8962;52.538;13.266;2024-03-06T03:13:15;45.22;;;23.60;;
17686;SDS011;8962;52.538;13.266;2024-03-06T03:15:43;42.08;;;23.40;;
17686;SDS011;8962;52.538;13.266;2024-03-06T03:18:10;42.80;;;23.98;;
17686;SDS011;8962;52.538;13.266;2024-03-06T03:20:37;40.60;;;23.58;;
17686;SDS011;8962;52.538;13.266;2024-03-06T03:23:04;42.38;;;22.65;;
17686;SDS011;8962;52.538;13.266;2024-03-06T03:25:36;41.15;;;23.00;;
17686;SDS011;8962;52.538;13.266;2024-03-06T03:28:04;41.97;;;23.35;;
17686;SDS011;8962;52.538;13.266;2024-03-06T03:30:33;42.38;;;23.40;;
17686;SDS011;8962;52.538;13.266;2024-03-06T03:33:00;37.45;;;21.85;;
17686;SDS011;8962;52.538;13.266;2024-03-06T03:35:27;38.42;;;20.98;;
17686;SDS011;8962;52.538;13.266;2024-03-06T03:37:56;40.28;;;21.98;;
17686;SDS011;8962;52.538;13.266;2024-03-06T03:40:23;39.40;;;21.63;;
17686;SDS011;8962;52.538;13.266;2024-03-06T03:42:50;36.55;;;21.52;;
17686;SDS011;8962;52.538;13.266;2024-03-06T03:45:17;36.22;;;20.40;;
17686;SDS011;8962;52.538;13.266;2024-03-06T03:47:47;37.35;;;21.33;;
17686;SDS011;8962;52.538;13.266;2024-03-06T03:50:14;41.42;;;22.90;;
17686;SDS011;8962;52.538;13.266;2024-03-06T03:52:41;41.15;;;23.27;;
17686;SDS011;8962;52.538;13.266;2024-03-06T03:55:09;39.03;;;22.15;;
17686;SDS011;8962;52.538;13.266;2024-03-06T03:57:36;41.35;;;22.42;;
17686;SDS011;8962;52.538;13.266;2024-03-06T04:00:03;36.45;;;20.65;;
17686;SDS011;8962;52.538;13.266;2024-03-06T04:02:37;41.97;;;21.45;;
17686;SDS011;8962;52.538;13.266;2024-03-06T04:05:06;40.65;;;22.40;;
17686;SDS011;8962;52.538;13.266;2024-03-06T04:07:35;38.00;;;21.75;;
17686;SDS011;8962;52.538;13.266;2024-03-06T04:10:03;38.75;;;20.92;;
17686;SDS011;8962;52.538;13.266;2024-03-06T04:12:30;38.78;;;21.52;;
17686;SDS011;8962;52.538;13.266;2024-03-06T04:14:57;37.35;;;21.63;;
17686;SDS011;8962;52.538;13.266;2024-03-06T04:17:24;37.72;;;21.40;;
17686;SDS011;8962;52.538;13.266;2024-03-06T04:19:54;37.47;;;21.02;;
17686;SDS011;8962;52.538;13.266;2024-03-06T04:22:23;34.72;;;20.38;;
17686;SDS011;8962;52.538;13.266;2024-03-06T04:24:51;32.88;;;20.52;;
17686;SDS011;8962;52.538;13.266;2024-03-06T04:27:18;35.88;;;19.42;;
17686;SDS011;8962;52.538;13.266;2024-03-06T04:29:45;35.17;;;19.42;;
17686;SDS011;8962;52.538;13.266;2024-03-06T04:32:12;33.33;;;19.75;;
17686;SDS011;8962;52.538;13.266;2024-03-06T04:34:39;38.00;;;19.98;;
17686;SDS011;8962;52.538;13.266;2024-03-06T04:37:06;37.55;;;20.30;;
17686;SDS011;8962;52.538;13.266;2024-03-06T04:39:35;34.15;;;20.30;;
17686;SDS011;8962;52.538;13.266;2024-03-06T04:42:02;34.13;;;19.83;;
17686;SDS011;8962;52.538;13.266;2024-03-06T04:44:33;34.88;;;19.95;;
17686;SDS011;8962;52.538;13.266;2024-03-06T04:47:00;33.42;;;19.02;;
17686;SDS011;8962;52.538;13.266;2024-03-06T04:49:27;32.28;;;18.60;;
17686;SDS011;8962;52.538;13.266;2024-03-06T04:51:58;35.88;;;20.60;;
17686;SDS011;8962;52.538;13.266;2024-03-06T04:54:25;34.10;;;19.88;;
17686;SDS011;8962;52.538;13.266;2024-03-06T04:56:54;34.85;;;20.02;;
17686;SDS011;8962;52.538;13.266;2024-03-06T04:59:21;32.15;;;18.40;;
17686;SDS011;8962;52.538;13.266;2024-03-06T05:01:48;35.83;;;19.63;;
17686;SDS011;8962;52.538;13.266;2024-03-06T05:04:15;35.85;;;19.50;;
17686;SDS011;8962;52.538;13.266;2024-03-06T05:06:42;36.20;;;21.30;;
17686;SDS011;8962;52.538;13.266;2024-03-06T05:09:09;35.47;;;19.92;;
17686;SDS011;8962;52.538;13.266;2024-03-06T05:11:36;34.45;;;19.35;;
17686;SDS011;8962;52.538;13.266;2024-03-06T05:14:05;38.10;;;20.15;;
17686;SDS011;8962;52.538;13.266;2024-03-06T05:16:32;36.17;;;20.88;;
17686;SDS011;8962;52.538;13.266;2024-03-06T05:18:59;36.65;;;20.65;;
17686;SDS011;8962;52.538;13.266;2024-03-06T05:21:27;39.28;;;21.35;;
17686;SDS011;8962;52.538;13.266;2024-03-06T05:23:54;39.45;;;21.42;;
17686;SDS011;8962;52.538;13.266;2024-03-06T05:26:21;36.72;;;20.60;;
17686;SDS011;8962;52.538;13.266;2024-03-06T05:28:48;38.72;;;21.05;;
17686;SDS011;8962;52.538;13.266;2024-03-06T05:31:17;37.63;;;20.42;;
17686;SDS011;8962;52.538;13.266;2024-03-06T05:33:46;41.97;;;21.80;;
17686;SDS011;8962;52.538;13.266;2024-03-06T05:36:14;39.13;;;20.63;;
17686;SDS011;8962;52.538;13.266;2024-03-06T05:38:42;39.53;;;21.13;;
17686;SDS011;8962;52.538;13.266;2024-03-06T05:41:09;43.20;;;21.65;;
17686;SDS011;8962;52.538;13.266;2024-03-06T05:43:37;41.25;;;21.08;;
17686;SDS011;8962;52.538;13.266;2024-03-06T05:46:06;39.70;;;21.35;;
17686;SDS011;8962;52.538;13.266;2024-03-06T05:48:35;41.15;;;21.95;;
17686;SDS011;8962;52.538;13.266;2024-03-06T05:51:03;42.72;;;21.67;;
17686;SDS011;8962;52.538;13.266;2024-03-06T05:53:35;40.95;;;21.48;;
17686;SDS011;8962;52.538;13.266;2024-03-06T05:56:04;39.58;;;21.15;;
17686;SDS011;8962;52.538;13.266;2024-03-06T05:58:32;41.10;;;21.23;;
17686;SDS011;8962;52.538;13.266;2024-03-06T06:01:01;40.17;;;20.58;;
17686;SDS011;8962;52.538;13.266;2024-03-06T06:03:28;39.20;;;21.60;;
17686;SDS011;8962;52.538;13.266;2024-03-06T06:05:57;37.20;;;20.88;;
17686;SDS011;8962;52.538;13.266;2024-03-06T06:08:24;42.70;;;21.63;;
17686;SDS011;8962;52.538;13.266;2024-03-06T06:10:53;39.50;;;20.40;;
17686;SDS011;8962;52.538;13.266;2024-03-06T06:13:20;38.42;;;20.73;;
17686;SDS011;8962;52.538;13.266;2024-03-06T06:15:48;40.10;;;21.77;;
17686;SDS011;8962;52.538;13.266;2024-03-06T06:18:15;43.47;;;22.13;;
17686;SDS011;8962;52.538;13.266;2024-03-06T06:20:42;36.22;;;20.35;;
17686;SDS011;8962;52.538;13.266;2024-03-06T06:23:11;40.30;;;21.33;;
17686;SDS011;8962;52.538;13.266;2024-03-06T06:25:40;39.38;;;21.48;;
17686;SDS011;8962;52.538;13.266;2024-03-06T06:28:09;41.25;;;20.77;;
17686;SDS011;8962;52.538;13.266;2024-03-06T06:30:36;41.10;;;21.52;;
17686;SDS011;8962;52.538;13.266;2024-03-06T06:33:04;49.47;;;21.48;;
17686;SDS011;8962;52.538;13.266;2024-03-06T06:35:31;39.75;;;20.33;;
17686;SDS011;8962;52.538;13.266;2024-03-06T06:37:59;37.13;;;20.88;;
17686;SDS011;8962;52.538;13.266;2024-03-06T06:40:28;40.30;;;21.27;;
17686;SDS011;8962;52.538;13.266;2024-03-06T06:42:55;38.60;;;20.83;;
17686;SDS011;8962;52.538;13.266;2024-03-06T06:45:23;37.13;;;21.92;;
17686;SDS011;8962;52.538;13.266;2024-03-06T06:47:51;40.25;;;21.10;;
17686;SDS011;8962;52.538;13.266;2024-03-06T06:50:18;38.53;;;20.27;;
17686;SDS011;8962;52.538;13.266;2024-03-06T06:52:48;38.22;;;20.30;;
17686;SDS011;8962;52.538;13.266;2024-03-06T06:55:15;40.88;;;22.23;;
17686;SDS011;8962;52.538;13.266;2024-03-06T06:57:44;39.63;;;20.95;;
17686;SDS011;8962;52.538;13.266;2024-03-06T07:00:11;37.90;;;20.55;;
17686;SDS011;8962;52.538;13.266;2024-03-06T07:02:42;39.72;;;22.42;;
17686;SDS011;8962;52.538;13.266;2024-03-06T07:05:09;39.80;;;20.58;;
17686;SDS011;8962;52.538;13.266;2024-03-06T07:07:37;39.20;;;20.50;;
17686;SDS011;8962;52.538;13.266;2024-03-06T07:10:05;40.50;;;20.90;;
17686;SDS011;8962;52.538;13.266;2024-03-06T07:12:33;38.80;;;21.40;;
17686;SDS011;8962;52.538;13.266;2024-03-06T07:15:02;34.55;;;20.20;;
17686;SDS011;8962;52.538;13.266;2024-03-06T07:17:29;36.05;;;20.83;;
17686;SDS011;8962;52.538;13.266;2024-03-06T07:19:56;35.08;;;20.15;;
17686;SDS011;8962;52.538;13.266;2024-03-06T07:22:23;36.03;;;20.08;;
17686;SDS011;8962;52.538;13.266;2024-03-06T07:24:51;35.70;;;19.85;;
17686;SDS011;8962;52.538;13.266;2024-03-06T07:27:18;34.22;;;19.30;;
17686;SDS011;8962;52.538;13.266;2024-03-06T07:29:45;32.03;;;19.75;;
17686;SDS011;8962;52.538;13.266;2024-03-06T07:32:14;36.90;;;20.65;;
17686;SDS011;8962;52.538;13.266;2024-03-06T07:34:41;34.17;;;20.80;;
17686;SDS011;8962;52.538;13.266;2024-03-06T07:37:09;33.42;;;19.05;;
17686;SDS011;8962;52.538;13.266;2024-03-06T07:39:36;38.10;;;20.55;;
17686;SDS011;8962;52.538;13.266;2024-03-06T07:42:04;33.70;;;20.13;;
17686;SDS011;8962;52.538;13.266;2024-03-06T07:44:31;34.30;;;20.65;;
17686;SDS011;8962;52.538;13.266;2024-03-06T07:47:00;35.78;;;19.45;;
17686;SDS011;8962;52.538;13.266;2024-03-06T07:49:29;36.75;;;21.67;;
17686;SDS011;8962;52.538;13.266;2024-03-06T07:51:57;34.90;;;20.05;;
17686;SDS011;8962;52.538;13.266;2024-03-06T07:54:24;35.95;;;20.88;;
17686;SDS011;8962;52.538;13.266;2024-03-06T07:56:52;35.92;;;20.25;;
17686;SDS011;8962;52.538;13.266;2024-03-06T07:59:19;32.25;;;19.60;;
17686;SDS011;8962;52.538;13.266;2024-03-06T08:01:47;31.23;;;17.95;;
17686;SDS011;8962;52.538;13.266;2024-03-06T08:04:14;31.17;;;18.30;;
17686;SDS011;8962;52.538;13.266;2024-03-06T08:06:42;33.22;;;19.17;;
17686;SDS011;8962;52.538;13.266;2024-03-06T08:09:09;30.25;;;18.20;;
17686;SDS011;8962;52.538;13.266;2024-03-06T08:11:36;28.42;;;17.27;;
17686;SDS011;8962;52.538;13.266;2024-03-06T08:14:03;28.38;;;16.92;;
17686;SDS011;8962;52.538;13.266;2024-03-06T08:16:30;24.80;;;16.20;;
17686;SDS011;8962;52.538;13.266;2024-03-06T08:18:58;28.40;;;16.33;;
17686;SDS011;8962;52.538;13.266;2024-03-06T08:21:25;25.15;;;14.32;;
17686;SDS011;8962;52.538;13.266;2024-03-06T08:23:54;25.20;;;15.00;;
17686;SDS011;8962;52.538;13.266;2024-03-06T08:26:22;24.73;;;14.32;;
17686;SDS011;8962;52.538;13.266;2024-03-06T08:28:49;22.80;;;14.75;;
17686;SDS011;8962;52.538;13.266;2024-03-06T08:31:17;23.13;;;14.23;;
17686;SDS011;8962;52.538;13.266;2024-03-06T08:33:44;21.20;;;13.90;;
17686;SDS011;8962;52.538;13.266;2024-03-06T08:36:11;18.80;;;12.40;;
17686;SDS011;8962;52.538;13.266;2024-03-06T08:38:38;22.05;;;13.18;;
17686;SDS011;8962;52.538;13.266;2024-03-06T08:41:08;21.83;;;13.10;;
17686;SDS011;8962;52.538;13.266;2024-03-06T08:43:35;20.63;;;12.35;;
17686;SDS011;8962;52.538;13.266;2024-03-06T08:46:03;21.02;;;12.80;;
17686;SDS011;8962;52.538;13.266;2024-03-06T08:48:30;19.42;;;12.48;;
17686;SDS011;8962;52.538;13.266;2024-03-06T08:50:57;18.55;;;12.02;;
17686;SDS011;8962;52.538;13.266;2024-03-06T08:53:24;17.10;;;11.13;;
17686;SDS011;8962;52.538;13.266;2024-03-06T08:55:51;17.65;;;11.75;;
17686;SDS011;8962;52.538;13.266;2024-03-06T08:58:20;16.52;;;11.30;;
17686;SDS011;8962;52.538;13.266;2024-03-06T09:00:47;17.77;;;11.43;;
17686;SDS011;8962;52.538;13.266;2024-03-06T09:03:14;18.20;;;12.27;;
17686;SDS011;8962;52.538;13.266;2024-03-06T09:05:41;18.55;;;11.73;;
17686;SDS011;8962;52.538;13.266;2024-03-06T09:08:09;16.92;;;11.18;;
17686;SDS011;8962;52.538;13.266;2024-03-06T09:10:37;15.68;;;10.70;;
17686;SDS011;8962;52.538;13.266;2024-03-06T09:13:04;19.23;;;12.10;;
17686;SDS011;8962;52.538;13.266;2024-03-06T09:15:33;18.35;;;10.93;;
17686;SDS011;8962;52.538;13.266;2024-03-06T09:18:00;14.18;;;10.13;;
17686;SDS011;8962;52.538;13.266;2024-03-06T09:20:28;13.38;;;9.15;;
17686;SDS011;8962;52.538;13.266;2024-03-06T09:22:57;15.88;;;10.00;;
17686;SDS011;8962;52.538;13.266;2024-03-06T09:25:25;13.80;;;8.63;;
17686;SDS011;8962;52.538;13.266;2024-03-06T09:27:52;14.50;;;9.50;;
17686;SDS011;8962;52.538;13.266;2024-03-06T09:30:19;13.55;;;9.23;;
17686;SDS011;8962;52.538;13.266;2024-03-06T09:32:48;15.48;;;9.75;;
17686;SDS011;8962;52.538;13.266;2024-03-06T09:35:15;15.60;;;9.45;;
17686;SDS011;8962;52.538;13.266;2024-03-06T09:37:42;15.90;;;10.02;;
17686;SDS011;8962;52.538;13.266;2024-03-06T09:40:17;12.07;;;8.60;;
17686;SDS011;8962;52.538;13.266;2024-03-06T09:42:47;13.68;;;8.88;;
17686;SDS011;8962;52.538;13.266;2024-03-06T09:45:14;16.23;;;9.25;;
17686;SDS011;8962;52.538;13.266;2024-03-06T09:47:42;15.07;;;8.65;;
17686;SDS011;8962;52.538;13.266;2024-03-06T09:50:12;12.15;;;8.27;;
17686;SDS011;8962;52.538;13.266;2024-03-06T09:52:45;12.10;;;8.23;;
17686;SDS011;8962;52.538;13.266;2024-03-06T09:55:17;13.10;;;8.88;;
17686;SDS011;8962;52.538;13.266;2024-03-06T09:57:44;12.38;;;8.60;;
17686;SDS011;8962;52.538;13.266;2024-03-06T10:00:11;12.77;;;8.43;;
17686;SDS011;8962;52.538;13.266;2024-03-06T10:02:41;12.63;;;8.40;;
17686;SDS011;8962;52.538;13.266;2024-03-06T10:05:33;11.60;;;7.60;;
17686;SDS011;8962;52.538;13.266;2024-03-06T10:08:00;14.00;;;7.75;;
17686;SDS011;8962;52.538;13.266;2024-03-06T10:10:29;12.52;;;8.48;;
17686;SDS011;8962;52.538;13.266;2024-03-06T10:12:56;15.60;;;8.13;;
17686;SDS011;8962;52.538;13.266;2024-03-06T10:15:25;12.95;;;8.38;;
17686;SDS011;8962;52.538;13.266;2024-03-06T10:20:41;13.77;;;8.75;;
17686;SDS011;8962;52.538;13.266;2024-03-06T10:23:09;10.68;;;8.15;;
17686;SDS011;8962;52.538;13.266;2024-03-06T10:25:46;12.32;;;7.88;;
17686;SDS011;8962;52.538;13.266;2024-03-06T10:28:17;10.85;;;7.80;;
17686;SDS011;8962;52.538;13.266;2024-03-06T10:30:46;10.52;;;8.00;;
17686;SDS011;8962;52.538;13.266;2024-03-06T10:33:14;14.02;;;8.82;;
17686;SDS011;8962;52.538;13.266;2024-03-06T10:35:45;11.82;;;8.05;;
17686;SDS011;8962;52.538;13.266;2024-03-06T10:38:14;12.15;;;7.43;;
17686;SDS011;8962;52.538;13.266;2024-03-06T10:40:42;9.90;;;7.40;;
17686;SDS011;8962;52.538;13.266;2024-03-06T10:43:10;10.85;;;7.10;;
17686;SDS011;8962;52.538;13.266;2024-03-06T10:45:43;11.30;;;7.70;;
17686;SDS011;8962;52.538;13.266;2024-03-06T10:48:14;10.70;;;7.90;;
17686;SDS011;8962;52.538;13.266;2024-03-06T10:50:43;10.95;;;7.80;;
17686;SDS011;8962;52.538;13.266;2024-03-06T10:53:13;12.27;;;8.15;;
17686;SDS011;8962;52.538;13.266;2024-03-06T10:55:42;12.75;;;8.02;;
17686;SDS011;8962;52.538;13.266;2024-03-06T10:58:10;12.00;;;8.25;;
17686;SDS011;8962;52.538;13.266;2024-03-06T11:00:38;17.50;;;9.57;;
17686;SDS011;8962;52.538;13.266;2024-03-06T11:03:06;17.67;;;10.32;;
17686;SDS011;8962;52.538;13.266;2024-03-06T11:05:37;13.15;;;9.40;;
17686;SDS011;8962;52.538;13.266;2024-03-06T11:08:07;14.38;;;10.05;;
17686;SDS011;8962;52.538;13.266;2024-03-06T11:10:35;14.07;;;10.38;;
17686;SDS011;8962;52.538;13.266;2024-03-06T11:13:04;14.52;;;10.73;;
17686;SDS011;8962;52.538;13.266;2024-03-06T11:15:47;19.75;;;11.25;;
17686;SDS011;8962;52.538;13.266;2024-03-06T11:24:14;18.20;;;11.52;;
17686;SDS011;8962;52.538;13.266;2024-03-06T11:26:45;16.80;;;10.98;;
17686;SDS011;8962;52.538;13.266;2024-03-06T11:29:15;15.45;;;10.98;;
17686;SDS011;8962;52.538;13.266;2024-03-06T11:34:32;20.05;;;12.43;;
17686;SDS011;8962;52.538;13.266;2024-03-06T11:37:02;15.85;;;11.70;;
17686;SDS011;8962;52.538;13.266;2024-03-06T11:39:34;19.75;;;12.82;;
17686;SDS011;8962;52.538;13.266;2024-03-06T11:42:02;16.83;;;11.98;;
17686;SDS011;8962;52.538;13.266;2024-03-06T11:44:33;17.55;;;11.48;;
17686;SDS011;8962;52.538;13.266;2024-03-06T11:47:01;20.02;;;11.60;;
17686;SDS011;8962;52.538;13.266;2024-03-06T11:49:30;14.43;;;10.48;;
17686;SDS011;8962;52.538;13.266;2024-03-06T11:52:00;15.23;;;10.82;;
17686;SDS011;8962;52.538;13.266;2024-03-06T11:54:29;19.10;;;13.48;;
17686;SDS011;8962;52.538;13.266;2024-03-06T11:56:58;19.98;;;13.35;;
17686;SDS011;8962;52.538;13.266;2024-03-06T11:59:27;16.75;;;13.18;;
17686;SDS011;8962;52.538;13.266;2024-03-06T12:01:55;23.23;;;14.27;;
17686;SDS011;8962;52.538;13.266;2024-03-06T12:04:23;24.75;;;14.63;;
17686;SDS011;8962;52.538;13.266;2024-03-06T12:06:50;23.42;;;14.45;;
17686;SDS011;8962;52.538;13.266;2024-03-06T12:09:17;18.13;;;13.10;;
17686;SDS011;8962;52.538;13.266;2024-03-06T12:11:45;18.10;;;11.68;;
17686;SDS011;8962;52.538;13.266;2024-03-06T12:14:17;13.73;;;10.35;;
17686;SDS011;8962;52.538;13.266;2024-03-06T12:16:54;15.40;;;11.60;;
17686;SDS011;8962;52.538;13.266;2024-03-06T12:19:22;13.95;;;11.38;;
17686;SDS011;8962;52.538;13.266;2024-03-06T12:21:52;14.30;;;10.65;;
17686;SDS011;8962;52.538;13.266;2024-03-06T12:24:20;12.50;;;10.30;;
17686;SDS011;8962;52.538;13.266;2024-03-06T12:26:47;15.65;;;10.55;;
17686;SDS011;8962;52.538;13.266;2024-03-06T12:29:27;12.95;;;9.55;;
17686;SDS011;8962;52.538;13.266;2024-03-06T12:31:55;14.50;;;9.90;;
17686;SDS011;8962;52.538;13.266;2024-03-06T12:34:23;11.93;;;9.55;;
17686;SDS011;8962;52.538;13.266;2024-03-06T12:36:50;12.20;;;9.10;;
17686;SDS011;8962;52.538;13.266;2024-03-06T12:39:17;14.82;;;11.20;;
17686;SDS011;8962;52.538;13.266;2024-03-06T12:41:48;14.77;;;11.00;;
17686;SDS011;8962;52.538;13.266;2024-03-06T12:44:15;11.45;;;9.48;;
17686;SDS011;8962;52.538;13.266;2024-03-06T12:46:44;12.38;;;9.43;;
17686;SDS011;8962;52.538;13.266;2024-03-06T12:49:11;14.93;;;11.05;;
17686;SDS011;8962;52.538;13.266;2024-03-06T12:51:38;12.23;;;9.43;;
17686;SDS011;8962;52.538;13.266;2024-03-06T12:54:05;12.73;;;9.43;;
17686;SDS011;8962;52.538;13.266;2024-03-06T12:56:33;17.17;;;9.98;;
17686;SDS011;8962;52.538;13.266;2024-03-06T12:59:01;13.43;;;10.32;;
17686;SDS011;8962;52.538;13.266;2024-03-06T13:01:28;13.70;;;10.63;;
17686;SDS011;8962;52.538;13.266;2024-03-06T13:03:57;13.55;;;10.88;;
17686;SDS011;8962;52.538;13.266;2024-03-06T13:06:27;13.43;;;10.23;;
17686;SDS011;8962;52.538;13.266;2024-03-06T13:08:59;14.23;;;10.05;;
17686;SDS011;8962;52.538;13.266;2024-03-06T13:11:26;13.13;;;10.40;;
17686;SDS011;8962;52.538;13.266;2024-03-06T13:13:54;13.57;;;10.93;;
17686;SDS011;8962;52.538;13.266;2024-03-06T13:16:21;16.05;;;11.85;;
17686;SDS011;8962;52.538;13.266;2024-03-06T13:18:48;16.58;;;11.65;;
17686;SDS011;8962;52.538;13.266;2024-03-06T13:21:19;20.20;;;12.35;;
17686;SDS011;8962;52.538;13.266;2024-03-06T13:23:46;19.15;;;12.52;;
17686;SDS011;8962;52.538;13.266;2024-03-06T13:26:13;20.17;;;13.38;;
17686;SDS011;8962;52.538;13.266;2024-03-06T13:28:41;21.52;;;13.45;;
17686;SDS011;8962;52.538;13.266;2024-03-06T13:31:08;19.67;;;12.95;;
17686;SDS011;8962;52.538;13.266;2024-03-06T13:33:35;22.55;;;12.65;;
17686;SDS011;8962;52.538;13.266;2024-03-06T13:36:02;20.75;;;13.40;;
17686;SDS011;8962;52.538;13.266;2024-03-06T13:38:31;22.35;;;13.30;;
17686;SDS011;8962;52.538;13.266;2024-03-06T13:40:58;18.75;;;12.98;;
17686;SDS011;8962;52.538;13.266;2024-03-06T13:43:27;17.80;;;12.32;;
17686;SDS011;8962;52.538;13.266;2024-03-06T13:45:54;18.45;;;13.05;;
17686;SDS011;8962;52.538;13.266;2024-03-06T13:48:23;21.67;;;13.75;;
17686;SDS011;8962;52.538;13.266;2024-03-06T13:50:50;20.88;;;14.25;;
17686;SDS011;8962;52.538;13.266;2024-03-06T13:53:17;24.98;;;15.40;;
17686;SDS011;8962;52.538;13.266;2024-03-06T13:55:46;25.08;;;16.73;;
17686;SDS011;8962;52.538;13.266;2024-03-06T13:58:13;26.02;;;16.52;;
17686;SDS011;8962;52.538;13.266;2024-03-06T14:00:40;27.48;;;16.05;;
17686;SDS011;8962;52.538;13.266;2024-03-06T14:03:07;28.45;;;16.42;;
17686;SDS011;8962;52.538;13.266;2024-03-06T14:05:36;29.25;;;16.17;;
17686;SDS011;8962;52.538;13.266;2024-03-06T14:08:03;29.67;;;14.85;;
17686;SDS011;8962;52.538;13.266;2024-03-06T14:10:30;24.73;;;14.52;;
17686;SDS011;8962;52.538;13.266;2024-03-06T14:13:00;22.08;;;12.40;;
17686;SDS011;8962;52.538;13.266;2024-03-06T14:15:27;23.60;;;12.93;;
17686;SDS011;8962;52.538;13.266;2024-03-06T14:17:54;28.95;;;14.13;;
17686;SDS011;8962;52.538;13.266;2024-03-06T14:20:22;22.50;;;11.65;;
17686;SDS011;8962;52.538;13.266;2024-03-06T14:22:50;20.00;;;12.27;;
17686;SDS011;8962;52.538;13.266;2024-03-06T14:25:17;20.15;;;11.57;;
17686;SDS011;8962;52.538;13.266;2024-03-06T14:27:46;19.00;;;11.18;;
17686;SDS011;8962;52.538;13.266;2024-03-06T14:30:15;17.67;;;10.70;;
17686;SDS011;8962;52.538;13.266;2024-03-06T14:32:45;18.65;;;11.02;;
17686;SDS011;8962;52.538;13.266;2024-03-06T14:35:13;24.90;;;12.63;;
17686;SDS011;8962;52.538;13.266;2024-03-06T14:37:40;22.52;;;12.10;;
17686;SDS011;8962;52.538;13.266;2024-03-06T14:40:08;21.45;;;12.13;;